Witamy w Fly Ecuador Virtual

Fly Ecuador Virtual es una organización creada con el fin de brindar una plataforma que permita a los pilotos virtuales, principalmente ecuatorianos, tener un lugar donde registrar sus horas de vuelo, sus certificados de conocimiento adquiridos, las rutas que han volado y los destinos que han visitado. Así mismo, se busca ayudar a todos los pilotos a expandir su conocimiento sobre el mundo de la aviación real y virtual por medio de publicaciones, foros y cursos en línea.

A diferencia de las aerolíneas virtuales tradicionales, Fly Ecuador Virtual no simula las operaciones de una aerolínea del mundo real en específico. Un miembro de Fly Ecuador Virtual tiene toda la libertad de volar cualquier aeronave que opere en el espacio aéreo ecuatoriano real, en cualquier ruta, sea esta nacional o internacional, IFR o VFR, aeronaves monomotor, multimotor o helicópteros. Todo esto con el objetivo de expandir las operaciones virtuales dentro del espacio aéreo ecuatoriano, creando una comunidad en la que se compartan conocimientos y experiencias que beneficien a todos sus integrantes.

El crecimiento de Fly Ecuador Virtual depende de la participación conjunta de todos sus miembros, por este motivo se incentiva la participación en línea a través de los diferentes medios descritos más adelante en este sitio web.

 Statystyki

Piloci 77
Liczba maszyn 0
Trasy 0
Godziny: 10514.52
Łącznie lotów 1684
Loty Regularne 0
Loty charterowe 1731
% Lotów Regularnych 0.00 %

 Ostatnie loty

CallsignPilotOdlotPrzylotDataDługość lotu
ECU024Arturo Carvajal  SEGS  MRLB 2018-11-11 1.99
ECU085Julio Chila Barrezueta  SEQM  SKCG 2018-11-05 3.06
ECU018Luis Heredia  SVMI  SOCA 2018-11-03 2.15
ECU018Luis Heredia  SEGU  SPJC 2018-10-28 1.48

 Nowi Piloci

 Consultar METAR

METAR
SEGU - José Joaquín de Olmedo International Airport, Guayaquil, ECU
Distance from station: N 0mi, 0km
Updated: Wed, 21-Nov-2018 6:00am PST
Mostly Cloudy
Mostly Cloudy
 Wind from SSW
Wind: SSW 7 mph , 11 km/h
Temperature: 77°F , 25°C
Dew Point: 68°F , 20°C
Humidity: 74%
Barometer: 29.91 inHg , 1013 hPa
Clouds: Mostly Cloudy
Visibility: 6 miles , 10 km
Cloud details: Few Clouds 2000 ft
Mostly Cloudy 3300 ft
Mostly Cloudy 10000 ft
2018/11/21 14:00 SEGU 211400Z 20006KT 170V250 9999 FEW020 BKN033 BKN100 25/20 Q1013 NOSIG RMK A2994
 
SEQM - Aeropuerto Internacional Mariscal Sucre, ECU
Distance from station: NE 120mi, 200km
Updated: Wed, 21-Nov-2018 6:00am PST
Few Clouds
Few Clouds
 Wind from NW
Wind: NW 2 mph , 4 km/h
Temperature: 63°F , 17°C
Dew Point: 57°F , 14°C
Humidity: 83%
Barometer: 30.36 inHg , 1028 hPa
Clouds: Few Clouds
Visibility: 6 miles , 10 km
Cloud details: Few Clouds 2000 ft
2018/11/21 14:00 SEQM 211400Z 31002KT 9999 FEW020 17/14 Q1028 NOSIG RMK A3037
 
SECU - Mariscal Lamar Airpor, ECU
Distance from station: ENE 80mi, 120km
Updated: Wed, 21-Nov-2018 6:00am PST
Overcast
Overcast
 Wind from calm
Wind: Calm
Temperature: 55°F , 13°C
Dew Point: 52°F , 11°C
Humidity: 88%
Barometer: 30.39 inHg , 1029 hPa
Clouds: Overcast
Visibility: 6 miles , 10 km
Cloud details: Overcast 2000 ft
2018/11/21 14:00 SECU 211400Z 00000KT 9999 OVC020 13/11 Q1029
 
SELT - Cotopaxi International Airport, ECU
Distance from station: NW 21mi, 34km
Updated: Wed, 21-Nov-2018 6:00am PST
Partly Cloudy
Partly Cloudy
 Wind from SSE
Wind: SSE 5 mph , 7 km/h
Temperature: 61°F , 16°C
Dew Point: 48°F , 9°C
Humidity: 63%
Barometer: 30.47 inHg , 1032 hPa
Clouds: Partly Cloudy
Visibility: 6 miles , 10 km
Cloud details: Partly Cloudy 3000 ft
2018/11/21 14:00 SELT 211400Z 16004KT 9999 SCT030 16/09 Q1032
 
SEMT - Eloy Alfaro International Airport, ECU
Distance from station: SSE 70mi, 100km
Updated: Wed, 21-Nov-2018 6:00am PST
Partly Cloudy
Partly Cloudy
 Wind from S
Wind: S 12 mph , 19 km/h
Temperature: 75°F , 24°C
Dew Point: 70°F , 21°C
Humidity: 83%
Barometer: 29.94 inHg , 1014 hPa
Clouds: Partly Cloudy
Visibility: 6 miles , 10 km
Cloud details: Partly Cloudy 2000 ft
Partly Cloudy 2600 ft
2018/11/21 14:00 SEMT 211400Z 19010KT 9999 SCT020 SCT026 24/21 Q1014 RMK A2997

Metar display script from Saratoga-Weather.org

 NOTAMy

NOTAMData



Fly Ecuador Virtual 2018 | System by VAM